Time;durP1;ratioP1;P1;durP2;ratioP2;P2;SDS_P1;SDS_P2;PMS_P1;PMS_P2;Temp;Humidity;BMP_temperature;BMP_pressure;BME280_temperature;BME280_humidity;BME280_pressure;Samples;Min_cycle;Max_cycle;Signal;HPM_P1;HPM_P2
2023/08/03 00:00:36;;;;;;;10.03;4.00;;;16.80;99.90;;;;;;5076284;28;20173;-79
2023/08/03 00:03:02;;;;;;;14.97;7.27;;;16.70;99.90;;;;;;5076320;28;20653;-79
2023/08/03 00:05:27;;;;;;;13.60;5.00;;;16.80;99.90;;;;;;5075861;28;20173;-79
2023/08/03 00:07:53;;;;;;;11.73;4.30;;;16.80;99.90;;;;;;5076069;28;20176;-80
2023/08/03 00:10:20;;;;;;;10.83;4.37;;;16.70;99.90;;;;;;5076342;28;20172;-80
2023/08/03 00:12:47;;;;;;;13.00;4.53;;;16.70;99.90;;;;;;5074890;28;20185;-78
2023/08/03 00:15:14;;;;;;;14.33;4.90;;;16.70;99.90;;;;;;5075896;28;20241;-78
2023/08/03 00:17:40;;;;;;;9.13;3.83;;;16.70;99.90;;;;;;5076135;28;20539;-80
2023/08/03 00:20:07;;;;;;;13.77;4.50;;;16.70;99.90;;;;;;5075652;28;20169;-79
2023/08/03 00:22:34;;;;;;;13.77;4.03;;;16.70;99.90;;;;;;5075919;28;20204;-79
2023/08/03 00:24:59;;;;;;;13.20;4.03;;;16.70;99.90;;;;;;5075829;28;20648;-79
2023/08/03 00:27:26;;;;;;;17.73;9.80;;;16.70;99.90;;;;;;5075785;28;20176;-78
2023/08/03 00:29:52;;;;;;;13.00;4.30;;;16.70;99.90;;;;;;5076206;28;20176;-78
2023/08/03 00:32:18;;;;;;;14.87;4.67;;;16.80;99.90;;;;;;5075694;28;20173;-78
2023/08/03 00:34:43;;;;;;;14.00;4.13;;;16.80;99.90;;;;;;5075156;28;20208;-78
2023/08/03 00:37:11;;;;;;;14.03;4.13;;;16.80;99.90;;;;;;5075414;28;20192;-78
2023/08/03 00:39:36;;;;;;;11.20;3.93;;;16.80;99.90;;;;;;5075688;28;20175;-78
2023/08/03 00:42:02;;;;;;;15.77;6.40;;;16.80;99.90;;;;;;5075291;28;20306;-77
2023/08/03 00:44:28;;;;;;;12.73;4.90;;;16.80;99.90;;;;;;5075286;28;20262;-78
2023/08/03 00:46:54;;;;;;;13.27;4.90;;;16.80;99.90;;;;;;5075410;28;20177;-79
2023/08/03 00:49:20;;;;;;;12.67;4.50;;;16.80;99.90;;;;;;5075134;28;20169;-78
2023/08/03 00:51:45;;;;;;;14.73;4.23;;;16.90;99.90;;;;;;5074896;28;20647;-78
2023/08/03 00:54:11;;;;;;;14.70;4.93;;;16.80;99.90;;;;;;5075297;28;20176;-79
2023/08/03 00:56:37;;;;;;;13.33;3.77;;;16.90;99.90;;;;;;5075131;28;20188;-78
2023/08/03 00:59:04;;;;;;;13.83;4.30;;;16.90;99.90;;;;;;5075006;28;20678;-78
2023/08/03 01:01:30;;;;;;;14.00;4.30;;;16.90;99.90;;;;;;5075042;28;20690;-77
2023/08/03 01:03:56;;;;;;;11.80;3.80;;;16.90;99.90;;;;;;5074627;28;20177;-77
2023/08/03 01:06:22;;;;;;;16.70;4.67;;;16.90;99.90;;;;;;5075112;28;20172;-78
2023/08/03 01:08:48;;;;;;;11.10;4.03;;;16.90;99.90;;;;;;5074834;28;20177;-78
2023/08/03 01:11:13;;;;;;;8.93;3.33;;;16.90;99.90;;;;;;5074983;28;20522;-78
2023/08/03 01:13:39;;;;;;;10.03;3.53;;;16.90;99.90;;;;;;5074703;28;20176;-78
2023/08/03 01:16:09;;;;;;;12.33;3.90;;;16.90;99.90;;;;;;5074903;28;20177;-77
2023/08/03 01:18:36;;;;;;;12.40;3.70;;;17.00;99.90;;;;;;5074433;28;20173;-78
2023/08/03 01:21:04;;;;;;;8.97;3.37;;;16.90;99.90;;;;;;5074724;28;20176;-77
2023/08/03 01:23:29;;;;;;;12.90;3.63;;;17.00;99.90;;;;;;5074853;28;20172;-76
2023/08/03 01:25:55;;;;;;;13.03;3.30;;;17.00;99.90;;;;;;5073454;28;20172;-77
2023/08/03 01:28:20;;;;;;;10.17;3.50;;;17.00;99.90;;;;;;5074280;28;20168;-76
2023/08/03 01:30:47;;;;;;;11.10;3.70;;;17.00;99.90;;;;;;5073247;28;20218;-76
2023/08/03 01:33:12;;;;;;;8.63;3.00;;;17.00;99.90;;;;;;5074124;28;20164;-77
2023/08/03 01:35:38;;;;;;;14.47;3.30;;;17.00;99.90;;;;;;5074382;28;20175;-76
2023/08/03 01:38:04;;;;;;;11.37;3.43;;;17.00;99.90;;;;;;5074426;28;20177;-77
2023/08/03 01:40:30;;;;;;;12.67;3.53;;;17.00;99.90;;;;;;5074099;28;20243;-77
2023/08/03 01:42:56;;;;;;;14.57;3.80;;;17.00;99.90;;;;;;5074155;28;20542;-77
2023/08/03 01:45:21;;;;;;;10.13;3.30;;;17.10;99.90;;;;;;5073997;28;20176;-77
2023/08/03 01:47:47;;;;;;;8.27;3.23;;;17.10;99.90;;;;;;5074069;28;20334;-76
2023/08/03 01:52:58;;;;;;;10.97;3.47;;;17.10;99.90;;;;;;5074193;28;20196;-76
2023/08/03 01:55:24;;;;;;;8.67;3.10;;;17.20;99.90;;;;;;5073873;28;20203;-77
2023/08/03 01:57:49;;;;;;;10.77;3.17;;;17.10;99.90;;;;;;5073938;28;20172;-77
2023/08/03 02:00:15;;;;;;;9.10;2.80;;;17.20;99.90;;;;;;5073796;28;20620;-76
2023/08/03 02:02:41;;;;;;;6.70;2.93;;;17.20;99.90;;;;;;5073032;28;20208;-77
2023/08/03 02:05:06;;;;;;;10.07;3.23;;;17.20;99.90;;;;;;5073956;28;20203;-77
2023/08/03 02:07:53;;;;;;;6.87;2.60;;;17.20;99.90;;;;;;5072442;28;20582;-77
2023/08/03 02:10:18;;;;;;;9.00;3.00;;;17.30;99.90;;;;;;5073778;28;20173;-77
2023/08/03 02:12:44;;;;;;;11.13;3.10;;;17.20;99.90;;;;;;5073895;28;20161;-77
2023/08/03 02:15:10;;;;;;;8.93;3.00;;;17.30;99.90;;;;;;5073358;28;20678;-77
2023/08/03 02:17:35;;;;;;;10.60;3.10;;;17.20;99.90;;;;;;5073747;28;20168;-77
2023/08/03 02:20:01;;;;;;;6.97;2.77;;;17.20;99.90;;;;;;5073578;28;20632;-77
2023/08/03 02:22:26;;;;;;;7.87;3.17;;;17.20;99.90;;;;;;5073504;28;20283;-77
2023/08/03 02:24:52;;;;;;;5.50;2.53;;;17.30;99.90;;;;;;5073535;28;20167;-77
2023/08/03 02:27:18;;;;;;;12.33;3.53;;;17.30;99.90;;;;;;5073531;28;20675;-77
2023/08/03 02:29:43;;;;;;;5.90;2.83;;;17.30;99.90;;;;;;5073285;28;20165;-77
2023/08/03 02:32:09;;;;;;;7.67;3.13;;;17.30;99.90;;;;;;5072598;28;20556;-77
2023/08/03 02:34:34;;;;;;;14.23;3.17;;;17.30;99.90;;;;;;5073483;28;20221;-77
2023/08/03 02:37:00;;;;;;;8.90;2.50;;;17.30;99.90;;;;;;5073380;28;20176;-76
2023/08/03 02:39:25;;;;;;;8.87;3.07;;;17.30;99.90;;;;;;5073414;28;20168;-76
2023/08/03 02:41:52;;;;;;;7.10;2.80;;;17.40;99.90;;;;;;5073074;28;20799;-77
2023/08/03 02:44:18;;;;;;;5.28;2.50;;;17.30;99.90;;;;;;5073056;28;20171;-77
2023/08/03 02:46:44;;;;;;;6.17;2.47;;;17.30;99.90;;;;;;5073709;28;20222;-77
2023/08/03 02:49:10;;;;;;;6.97;2.80;;;17.20;99.90;;;;;;5073313;28;20615;-77
2023/08/03 02:51:35;;;;;;;7.90;2.93;;;17.20;99.90;;;;;;5073293;28;20167;-77
2023/08/03 02:54:01;;;;;;;8.30;2.97;;;17.20;99.90;;;;;;5073639;28;20175;-78
2023/08/03 02:56:26;;;;;;;6.00;2.63;;;17.20;99.90;;;;;;5073605;28;20185;-77
2023/08/03 02:58:52;;;;;;;6.47;2.47;;;17.20;99.90;;;;;;5073152;28;20184;-77
2023/08/03 03:01:19;;;;;;;9.63;3.13;;;17.20;99.90;;;;;;5073385;28;20180;-77
2023/08/03 03:03:45;;;;;;;7.00;2.73;;;17.20;99.90;;;;;;5072834;28;20263;-77
2023/08/03 03:06:10;;;;;;;7.83;2.90;;;17.20;99.90;;;;;;5073175;28;20257;-77
2023/08/03 03:08:36;;;;;;;6.87;3.00;;;17.20;99.90;;;;;;5073047;28;20180;-75
2023/08/03 03:11:02;;;;;;;4.57;2.47;;;17.20;99.90;;;;;;5073068;28;20204;-77
2023/08/03 03:13:27;;;;;;;5.40;2.47;;;17.20;99.90;;;;;;5071402;28;20202;-76
2023/08/03 03:15:53;;;;;;;5.57;2.37;;;17.20;99.90;;;;;;5076991;28;20628;-77
2023/08/03 03:18:18;;;;;;;4.73;2.60;;;17.20;99.90;;;;;;5076624;28;20189;-76
2023/08/03 03:20:44;;;;;;;7.33;2.70;;;17.20;99.90;;;;;;5075943;28;20176;-77
2023/08/03 03:23:10;;;;;;;11.57;2.87;;;17.20;99.90;;;;;;5076391;28;20219;-78
2023/08/03 03:25:35;;;;;;;9.07;2.80;;;17.20;99.90;;;;;;5076752;28;20196;-77
2023/08/03 03:28:04;;;;;;;7.43;2.87;;;17.10;99.90;;;;;;5076455;28;20176;-76
2023/08/03 03:30:31;;;;;;;6.87;2.47;;;17.10;99.90;;;;;;5076600;28;20175;-77
2023/08/03 03:32:56;;;;;;;6.47;2.70;;;17.10;99.90;;;;;;5076464;28;20199;-77
2023/08/03 03:35:22;;;;;;;7.85;2.47;;;17.10;99.90;;;;;;5076572;28;20168;-77
2023/08/03 03:37:48;;;;;;;7.67;2.90;;;17.10;99.90;;;;;;5076429;28;20648;-76
2023/08/03 03:40:13;;;;;;;6.72;2.75;;;17.10;99.90;;;;;;5076151;28;20222;-77
2023/08/03 03:42:39;;;;;;;7.37;2.57;;;17.10;99.90;;;;;;5076245;28;20652;-78
2023/08/03 03:45:05;;;;;;;9.63;2.80;;;17.10;99.90;;;;;;5076345;28;20207;-77
2023/08/03 03:47:31;;;;;;;7.57;3.03;;;17.10;99.90;;;;;;5076361;28;20178;-78
2023/08/03 03:49:57;;;;;;;9.37;2.70;;;17.10;99.90;;;;;;5076221;28;20173;-77
2023/08/03 03:52:22;;;;;;;7.37;2.80;;;17.10;99.90;;;;;;5075882;28;20175;-77
2023/08/03 03:54:48;;;;;;;7.60;2.80;;;17.10;99.90;;;;;;5074676;28;20172;-78
2023/08/03 03:57:13;;;;;;;8.83;2.73;;;17.10;99.90;;;;;;5075510;28;20648;-78
2023/08/03 03:59:39;;;;;;;12.17;3.07;;;17.10;99.90;;;;;;5075918;28;20194;-78
2023/08/03 04:02:05;;;;;;;10.30;3.37;;;17.10;99.90;;;;;;5076124;28;20204;-78
2023/08/03 04:04:30;;;;;;;7.97;2.97;;;17.10;99.90;;;;;;5075536;28;20165;-78
2023/08/03 04:06:56;;;;;;;9.87;3.10;;;17.10;99.90;;;;;;5076261;28;20239;-78
2023/08/03 04:09:21;;;;;;;9.93;3.17;;;17.10;99.90;;;;;;5076191;28;20175;-78
2023/08/03 04:11:47;;;;;;;6.37;2.87;;;17.10;99.90;;;;;;5074839;28;20352;-78
2023/08/03 04:14:12;;;;;;;7.47;3.07;;;17.10;99.90;;;;;;5075363;28;20605;-78
2023/08/03 04:16:38;;;;;;;9.97;3.03;;;17.10;99.90;;;;;;5075724;28;20168;-79
2023/08/03 04:19:04;;;;;;;6.03;2.80;;;17.10;99.90;;;;;;5075714;28;20528;-78
2023/08/03 04:21:29;;;;;;;7.80;3.03;;;17.10;99.90;;;;;;5075622;28;20629;-79
2023/08/03 04:23:55;;;;;;;8.17;2.90;;;17.10;99.90;;;;;;5075563;28;20226;-77
2023/08/03 04:26:21;;;;;;;9.03;3.00;;;17.10;99.90;;;;;;5074547;28;20650;-77
2023/08/03 04:28:46;;;;;;;8.43;3.73;;;17.10;99.90;;;;;;5075472;28;20172;-78
2023/08/03 04:31:12;;;;;;;10.13;3.08;;;17.20;99.90;;;;;;5075482;28;20165;-78
2023/08/03 04:33:37;;;;;;;7.65;2.75;;;17.10;99.90;;;;;;5075336;28;20211;-78
2023/08/03 04:36:03;;;;;;;5.43;2.57;;;17.10;99.90;;;;;;5075660;28;20252;-77
2023/08/03 04:38:29;;;;;;;7.53;3.00;;;17.20;99.90;;;;;;5075410;28;20168;-78
2023/08/03 04:40:55;;;;;;;6.55;3.10;;;17.20;99.90;;;;;;5074567;28;20228;-78
2023/08/03 04:43:20;;;;;;;6.93;3.00;;;17.20;99.90;;;;;;5073479;28;20216;-78
2023/08/03 04:45:46;;;;;;;9.47;3.20;;;17.20;99.90;;;;;;5075064;28;20176;-80
2023/08/03 04:48:12;;;;;;;5.50;2.90;;;17.20;99.90;;;;;;5074971;28;20177;-81
2023/08/03 04:50:38;;;;;;;7.93;3.20;;;17.10;99.90;;;;;;5075462;28;20180;-80
2023/08/03 04:53:03;;;;;;;8.67;3.53;;;17.10;99.90;;;;;;5075890;28;20178;-78
2023/08/03 04:55:29;;;;;;;12.97;3.83;;;17.00;99.90;;;;;;5081207;28;20651;-79
2023/08/03 04:57:54;;;;;;;9.20;3.43;;;16.90;99.90;;;;;;5075867;28;20181;-78
2023/08/03 05:00:20;;;;;;;10.37;3.70;;;16.90;99.90;;;;;;5076306;28;20208;-79
2023/08/03 05:02:46;;;;;;;9.70;3.53;;;16.90;99.90;;;;;;5076205;28;20212;-79
2023/08/03 05:05:12;;;;;;;11.80;3.93;;;16.70;99.90;;;;;;5073081;28;20177;-77
2023/08/03 05:07:38;;;;;;;10.90;4.20;;;16.70;99.90;;;;;;5074743;28;20180;-78
2023/08/03 05:10:04;;;;;;;14.87;4.50;;;16.70;99.90;;;;;;5074363;28;20517;-79
2023/08/03 05:12:29;;;;;;;9.90;4.53;;;16.70;99.90;;;;;;5074339;28;20238;-80
2023/08/03 05:14:55;;;;;;;9.17;3.90;;;16.70;99.90;;;;;;5074313;28;20530;-78
2023/08/03 05:17:21;;;;;;;10.40;4.00;;;16.70;99.90;;;;;;5074361;28;20179;-78
2023/08/03 05:19:47;;;;;;;8.53;3.40;;;16.60;99.90;;;;;;5074353;28;20198;-78
2023/08/03 05:22:13;;;;;;;9.43;2.97;;;16.60;99.90;;;;;;5074724;28;20200;-79
2023/08/03 05:24:38;;;;;;;5.87;2.30;;;16.50;99.90;;;;;;5073677;28;20350;-79
2023/08/03 05:27:04;;;;;;;5.50;2.33;;;16.40;99.90;;;;;;5074302;28;20177;-77
2023/08/03 05:29:30;;;;;;;8.60;2.50;;;16.30;99.90;;;;;;5074249;28;20643;-78
2023/08/03 05:31:55;;;;;;;5.40;2.30;;;16.40;99.90;;;;;;5073830;28;20581;-78
2023/08/03 05:34:21;;;;;;;4.53;2.30;;;16.40;99.90;;;;;;5073998;28;20181;-78
2023/08/03 05:36:51;;;;;;;7.17;2.33;;;16.40;99.90;;;;;;5073831;28;20215;-78
2023/08/03 05:39:16;;;;;;;5.10;2.37;;;16.40;99.90;;;;;;5073601;28;20180;-78
2023/08/03 05:41:42;;;;;;;4.63;2.00;;;16.30;99.90;;;;;;5073141;28;20228;-79
2023/08/03 05:44:11;;;;;;;4.27;2.27;;;16.30;99.90;;;;;;5073801;28;20183;-77
2023/08/03 05:46:36;;;;;;;2.47;1.80;;;16.40;99.90;;;;;;5073538;28;20667;-78
2023/08/03 05:49:02;;;;;;;6.03;1.80;;;16.30;99.90;;;;;;5073425;28;20169;-77
2023/08/03 05:51:28;;;;;;;5.33;1.97;;;16.40;99.90;;;;;;5073309;28;20202;-77
2023/08/03 05:53:55;;;;;;;3.37;1.80;;;16.40;99.90;;;;;;5071714;28;20329;-79
2023/08/03 05:56:22;;;;;;;2.27;1.50;;;16.40;99.90;;;;;;5073242;28;20200;-79
2023/08/03 05:58:49;;;;;;;3.90;2.00;;;16.40;99.90;;;;;;5073402;28;20200;-79
2023/08/03 06:01:21;;;;;;;2.33;1.70;;;16.40;99.90;;;;;;5073217;28;20176;-79
2023/08/03 06:03:49;;;;;;;2.93;1.80;;;16.50;99.90;;;;;;5073203;28;20169;-78
2023/08/03 06:06:18;;;;;;;3.87;1.80;;;16.60;99.90;;;;;;5073018;28;20172;-78
2023/08/03 06:08:47;;;;;;;4.47;1.80;;;16.60;99.90;;;;;;5073369;28;20200;-77
2023/08/03 06:11:15;;;;;;;2.47;1.60;;;16.70;99.90;;;;;;5072688;28;20230;-78
2023/08/03 06:13:41;;;;;;;2.10;1.80;;;16.70;99.90;;;;;;5073070;28;20186;-78
2023/08/03 06:16:11;;;;;;;3.97;1.60;;;16.70;99.90;;;;;;5071865;28;20172;-77
2023/08/03 06:18:46;;;;;;;4.50;1.90;;;16.70;99.90;;;;;;5072963;28;20165;-77
2023/08/03 06:21:13;;;;;;;5.63;1.90;;;16.60;99.90;;;;;;5071567;28;20172;-77
2023/08/03 06:23:39;;;;;;;2.13;1.80;;;16.70;99.90;;;;;;5073623;28;20279;-77
2023/08/03 06:26:11;;;;;;;3.00;1.60;;;16.70;99.90;;;;;;5072626;28;20230;-78
2023/08/03 06:28:37;;;;;;;5.10;2.20;;;16.70;99.90;;;;;;5071517;28;20229;-79
2023/08/03 06:31:20;;;;;;;4.70;2.23;;;16.80;99.90;;;;;;5072525;28;20558;-79
2023/08/03 06:33:47;;;;;;;3.70;1.90;;;16.80;99.90;;;;;;5073042;28;20168;-78
2023/08/03 06:36:20;;;;;;;4.40;2.03;;;16.80;99.90;;;;;;5072164;28;20259;-79
2023/08/03 06:38:46;;;;;;;5.03;2.27;;;16.80;99.90;;;;;;5072725;28;20169;-79
2023/08/03 06:41:12;;;;;;;5.20;1.95;;;16.90;99.90;;;;;;5072406;28;20220;-79
2023/08/03 06:43:38;;;;;;;3.67;2.20;;;17.00;99.90;;;;;;5072407;28;20227;-79
2023/08/03 06:46:05;;;;;;;4.27;2.00;;;17.00;99.90;;;;;;5073000;28;20178;-79
2023/08/03 06:48:32;;;;;;;2.50;1.87;;;17.10;99.90;;;;;;5072114;28;20172;-78
2023/08/03 06:50:58;;;;;;;3.83;2.47;;;17.00;99.90;;;;;;5072107;28;20603;-79
2023/08/03 06:53:24;;;;;;;6.93;2.25;;;17.00;99.90;;;;;;5071134;28;20188;-79
2023/08/03 06:55:50;;;;;;;5.80;2.40;;;17.10;99.90;;;;;;5072288;28;20690;-79
2023/08/03 06:58:17;;;;;;;5.50;2.50;;;17.10;99.90;;;;;;5072132;28;20173;-79
2023/08/03 07:00:44;;;;;;;3.90;2.25;;;17.10;99.90;;;;;;5072486;28;20189;-80
2023/08/03 07:03:10;;;;;;;6.00;2.37;;;17.20;99.90;;;;;;5072473;28;20220;-80
2023/08/03 07:05:36;;;;;;;4.93;2.25;;;17.20;99.90;;;;;;5071862;28;20244;-80
2023/08/03 07:08:01;;;;;;;7.53;2.05;;;17.20;99.90;;;;;;5072419;28;20275;-79
2023/08/03 07:10:27;;;;;;;7.07;2.40;;;17.30;99.90;;;;;;5076304;28;20172;-80
2023/08/03 07:12:53;;;;;;;3.90;2.07;;;17.40;99.90;;;;;;5071382;28;20531;-80
2023/08/03 07:15:19;;;;;;;4.40;2.13;;;17.40;99.90;;;;;;5071862;28;20187;-79
2023/08/03 07:17:44;;;;;;;4.77;2.10;;;17.40;99.90;;;;;;5071190;28;20263;-78
2023/08/03 07:20:11;;;;;;;6.43;2.33;;;17.40;99.90;;;;;;5078185;28;20184;-79
2023/08/03 07:22:36;;;;;;;3.83;1.95;;;17.60;99.90;;;;;;5072147;28;20196;-79
2023/08/03 07:25:04;;;;;;;7.80;3.15;;;17.70;99.90;;;;;;5071070;28;20229;-78
2023/08/03 07:27:29;;;;;;;4.97;2.33;;;18.00;99.90;;;;;;5074213;28;20271;-78
2023/08/03 07:29:55;;;;;;;4.72;2.38;;;18.00;99.90;;;;;;5070680;28;20700;-80
2023/08/03 07:32:20;;;;;;;5.57;2.20;;;18.00;99.90;;;;;;5071461;28;20229;-78
2023/08/03 07:34:46;;;;;;;3.83;2.33;;;18.00;99.90;;;;;;5075468;28;20655;-79
2023/08/03 07:37:12;;;;;;;6.38;2.75;;;18.00;99.90;;;;;;5090532;28;20180;-77
2023/08/03 07:39:37;;;;;;;8.40;2.60;;;18.00;99.90;;;;;;5089343;28;20179;-78
2023/08/03 07:42:03;;;;;;;7.13;2.38;;;18.30;99.90;;;;;;5074668;28;20709;-78
2023/08/03 07:44:29;;;;;;;4.85;2.20;;;18.50;99.90;;;;;;5074416;28;20184;-78
2023/08/03 07:46:54;;;;;;;7.40;2.90;;;18.60;99.90;;;;;;5077918;28;20187;-80
2023/08/03 07:49:20;;;;;;;4.47;2.53;;;18.70;99.90;;;;;;5071012;28;20177;-78
2023/08/03 07:51:48;;;;;;;4.55;2.35;;;18.60;99.90;;;;;;5086217;28;20528;-79
2023/08/03 07:54:14;;;;;;;6.38;2.40;;;18.60;99.90;;;;;;5090027;28;20164;-79
2023/08/03 07:56:40;;;;;;;5.65;2.55;;;18.60;99.90;;;;;;5070585;28;20690;-78
2023/08/03 07:59:05;;;;;;;6.32;2.50;;;18.50;99.90;;;;;;5073315;28;20177;-78
2023/08/03 08:01:32;;;;;;;5.07;3.05;;;18.50;99.90;;;;;;5075959;28;20230;-80
2023/08/03 08:03:57;;;;;;;9.18;3.08;;;18.50;99.90;;;;;;5075185;28;20259;-79
2023/08/03 08:06:23;;;;;;;4.47;2.92;;;18.60;99.90;;;;;;5083116;28;20263;-80
2023/08/03 08:08:50;;;;;;;8.13;3.00;;;18.60;99.90;;;;;;5074206;28;20196;-79
2023/08/03 08:11:17;;;;;;;6.78;3.30;;;18.50;99.90;;;;;;5080730;28;20484;-80
2023/08/03 08:13:43;;;;;;;5.75;3.20;;;18.40;99.90;;;;;;5080240;28;20632;-80
2023/08/03 08:16:13;;;;;;;8.88;3.40;;;18.40;99.90;;;;;;5079729;28;20184;-82
2023/08/03 08:18:39;;;;;;;7.50;3.40;;;18.90;99.90;;;;;;5089786;28;20249;-81
2023/08/03 08:21:07;;;;;;;7.05;3.20;;;19.90;99.90;;;;;;5082354;28;20173;-79
2023/08/03 08:23:33;;;;;;;8.93;3.00;;;21.00;99.90;;;;;;5081137;28;20223;-80
2023/08/03 08:25:59;;;;;;;6.95;3.45;;;21.50;99.90;;;;;;5088452;28;20183;-80
2023/08/03 08:28:26;;;;;;;6.90;2.80;;;21.40;99.90;;;;;;5094385;28;20176;-80
2023/08/03 08:30:52;;;;;;;6.30;2.90;;;21.40;99.90;;;;;;5101081;28;20187;-80
2023/08/03 08:33:18;;;;;;;7.80;3.10;;;21.00;99.90;;;;;;5092485;28;20192;-80
2023/08/03 08:35:45;;;;;;;8.23;2.80;;;20.80;99.90;;;;;;5080348;28;20302;-80
2023/08/03 08:38:12;;;;;;;9.32;3.13;;;20.50;99.90;;;;;;5081878;28;20190;-79
2023/08/03 08:40:40;;;;;;;6.90;3.25;;;20.40;99.90;;;;;;5079879;28;20715;-79
2023/08/03 08:43:07;;;;;;;7.72;3.47;;;20.30;99.90;;;;;;5087377;28;20199;-80
2023/08/03 08:45:33;;;;;;;6.97;2.90;;;20.40;99.90;;;;;;5075817;28;20230;-79
2023/08/03 08:47:59;;;;;;;12.15;3.13;;;20.30;99.90;;;;;;5073713;28;20184;-79
2023/08/03 08:50:25;;;;;;;11.57;3.47;;;20.50;99.90;;;;;;5084591;28;20196;-79
2023/08/03 08:52:51;;;;;;;6.40;3.00;;;20.70;99.90;;;;;;5092795;28;20180;-78
2023/08/03 08:55:23;;;;;;;8.57;2.78;;;20.60;99.90;;;;;;5077103;28;20192;-78
2023/08/03 08:57:50;;;;;;;8.55;3.25;;;20.70;99.90;;;;;;5079114;28;20172;-79
2023/08/03 09:00:16;;;;;;;7.88;2.90;;;20.60;99.90;;;;;;5076082;28;20181;-80
2023/08/03 09:02:41;;;;;;;9.27;3.00;;;20.50;99.90;;;;;;5073402;28;20604;-79
2023/08/03 09:05:20;;;;;;;8.10;2.47;;;20.80;99.90;;;;;;5082033;28;20282;-80
2023/08/03 09:07:57;;;;;;;7.13;2.85;;;21.10;99.90;;;;;;5092624;28;20179;-80
2023/08/03 09:10:23;;;;;;;7.63;2.50;;;21.30;99.90;;;;;;5081537;28;20203;-80
2023/08/03 09:12:49;;;;;;;10.48;2.80;;;21.30;99.90;;;;;;5080270;28;20644;-79
2023/08/03 09:15:15;;;;;;;8.43;2.60;;;21.00;99.90;;;;;;5085161;28;20632;-79
2023/08/03 09:17:42;;;;;;;5.88;2.35;;;20.60;99.90;;;;;;5087007;28;20176;-79
2023/08/03 09:20:23;;;;;;;5.57;2.55;;;20.50;99.90;;;;;;5072345;28;20272;-81
2023/08/03 09:22:49;;;;;;;11.95;2.92;;;20.40;99.90;;;;;;5073823;28;20207;-80
2023/08/03 09:25:15;;;;;;;10.00;2.83;;;20.10;99.90;;;;;;5077139;28;20177;-80
2023/08/03 09:27:48;;;;;;;6.80;2.72;;;19.90;99.90;;;;;;5074688;28;20184;-80
2023/08/03 09:30:14;;;;;;;8.40;2.80;;;19.80;99.90;;;;;;5073666;28;20268;-80
2023/08/03 09:32:39;;;;;;;7.68;3.10;;;19.70;99.90;;;;;;5071887;28;20598;-80
2023/08/03 09:35:20;;;;;;;7.18;2.78;;;19.80;99.90;;;;;;5073433;28;20679;-79
2023/08/03 09:37:46;;;;;;;7.88;2.35;;;19.90;99.90;;;;;;5075559;28;20203;-80
2023/08/03 09:40:12;;;;;;;7.13;2.63;;;20.30;99.90;;;;;;5072973;28;20223;-80
2023/08/03 09:42:40;;;;;;;9.18;2.70;;;20.40;99.90;;;;;;5090444;28;20678;-80
2023/08/03 09:45:07;;;;;;;7.20;2.83;;;20.50;99.90;;;;;;5090263;28;20190;-80
2023/08/03 09:47:36;;;;;;;5.88;3.00;;;20.60;99.90;;;;;;5076249;28;20183;-79
2023/08/03 09:50:03;;;;;;;6.78;2.42;;;20.80;99.90;;;;;;5072761;28;20173;-80
2023/08/03 09:52:30;;;;;;;11.00;2.97;;;20.60;99.90;;;;;;5073103;28;20655;-78
2023/08/03 09:55:20;;;;;;;7.57;2.60;;;20.50;99.90;;;;;;5073417;28;20212;-79
2023/08/03 09:58:02;;;;;;;11.18;2.67;;;20.10;99.90;;;;;;5078803;28;20187;-80
2023/08/03 10:00:29;;;;;;;9.02;2.88;;;19.90;99.90;;;;;;5079716;28;20263;-79
2023/08/03 10:03:09;;;;;;;9.85;2.95;;;20.00;99.90;;;;;;5072260;28;20230;-78
2023/08/03 10:05:48;;;;;;;6.05;2.67;;;20.30;99.90;;;;;;5076479;28;20268;-80
2023/08/03 10:08:38;;;;;;;8.27;2.75;;;20.30;99.90;;;;;;5072528;28;20226;-78
2023/08/03 10:11:06;;;;;;;7.57;2.45;;;20.30;99.90;;;;;;5073333;28;20176;-79
2023/08/03 10:13:40;;;;;;;7.95;2.85;;;20.20;99.90;;;;;;5071375;28;20165;-79
2023/08/03 10:16:05;;;;;;;7.88;2.50;;;20.30;99.90;;;;;;5088469;28;20179;-79
2023/08/03 10:18:33;;;;;;;10.45;2.97;;;20.20;99.90;;;;;;5112523;28;20610;-79
2023/08/03 10:21:00;;;;;;;8.30;2.45;;;20.30;99.90;;;;;;5088018;28;20172;-80
2023/08/03 10:23:26;;;;;;;6.88;2.47;;;20.40;99.90;;;;;;5072407;28;21047;-79
2023/08/03 10:26:02;;;;;;;7.63;2.20;;;20.30;99.90;;;;;;5077182;28;20505;-79
2023/08/03 10:28:39;;;;;;;9.52;2.75;;;20.30;99.90;;;;;;5093259;28;20178;-78
2023/08/03 10:31:15;;;;;;;6.20;1.95;;;20.50;99.90;;;;;;5092998;28;20164;-78
2023/08/03 10:33:47;;;;;;;6.07;2.38;;;20.70;99.90;;;;;;5090715;28;20203;-80
2023/08/03 10:36:30;;;;;;;7.78;2.28;;;21.20;99.90;;;;;;5073172;28;20175;-81
2023/08/03 10:38:59;;;;;;;6.28;2.47;;;21.20;99.90;;;;;;5088595;28;20184;-78
2023/08/03 10:41:26;;;;;;;7.82;2.67;;;21.00;99.90;;;;;;5082064;28;20299;-78
2023/08/03 10:44:07;;;;;;;5.80;2.30;;;21.00;99.90;;;;;;5072322;28;20176;-78
2023/08/03 10:46:36;;;;;;;5.50;2.10;;;20.80;99.90;;;;;;5073549;28;20197;-79
2023/08/03 10:49:23;;;;;;;5.05;2.20;;;20.50;99.90;;;;;;5081660;28;20180;-78
2023/08/03 10:51:49;;;;;;;7.80;2.30;;;20.80;99.90;;;;;;5062715;28;20196;-79
2023/08/03 10:54:17;;;;;;;7.68;2.10;;;21.40;99.90;;;;;;5075656;28;20171;-78
2023/08/03 10:57:06;;;;;;;7.93;2.35;;;21.60;99.90;;;;;;5082138;28;20207;-79
2023/08/03 10:59:39;;;;;;;6.40;2.20;;;21.70;99.90;;;;;;5072023;28;20604;-79
2023/08/03 11:02:25;;;;;;;7.50;2.70;;;21.60;99.90;;;;;;5072133;28;20212;-79
2023/08/03 11:05:11;;;;;;;4.82;2.40;;;21.40;99.90;;;;;;5084236;28;20176;-80
2023/08/03 11:07:39;;;;;;;4.95;2.47;;;21.40;99.90;;;;;;5073038;28;20199;-79
2023/08/03 11:10:07;;;;;;;3.75;2.10;;;21.10;99.90;;;;;;5075070;28;20306;-79
2023/08/03 11:12:34;;;;;;;5.85;1.80;;;20.90;99.90;;;;;;5076230;28;20635;-78
2023/08/03 11:15:02;;;;;;;4.80;2.20;;;20.90;99.90;;;;;;5081304;28;20183;-78
2023/08/03 11:17:29;;;;;;;4.18;2.00;;;20.90;99.90;;;;;;5089065;28;20258;-79
2023/08/03 11:19:57;;;;;;;8.00;2.50;;;21.30;99.90;;;;;;5087370;28;20184;-79
2023/08/03 11:22:24;;;;;;;4.32;2.05;;;21.50;99.90;;;;;;5088864;28;20752;-79
2023/08/03 11:24:54;;;;;;;7.85;2.30;;;21.80;99.90;;;;;;5078566;28;20219;-81
2023/08/03 11:27:20;;;;;;;6.15;2.10;;;22.40;99.90;;;;;;5078424;28;20177;-79
2023/08/03 11:29:46;;;;;;;3.35;1.92;;;22.60;99.90;;;;;;5071071;28;20192;-79
2023/08/03 11:32:20;;;;;;;5.30;1.90;;;22.60;99.90;;;;;;5081835;28;20188;-79
2023/08/03 11:34:45;;;;;;;3.90;1.60;;;22.60;99.90;;;;;;5092643;28;20168;-79
2023/08/03 11:37:13;;;;;;;3.30;1.58;;;22.20;99.90;;;;;;5095781;28;20468;-78
2023/08/03 11:39:38;;;;;;;3.80;1.50;;;21.40;99.90;;;;;;5094961;28;20631;-78
2023/08/03 11:42:06;;;;;;;2.22;1.60;;;21.00;99.90;;;;;;5077753;28;20315;-79
2023/08/03 11:44:36;;;;;;;3.25;1.63;;;20.70;99.90;;;;;;5082444;28;20636;-79
2023/08/03 11:47:03;;;;;;;3.10;2.00;;;20.70;99.90;;;;;;5081420;28;20208;-79
2023/08/03 11:49:30;;;;;;;3.08;1.83;;;20.70;99.90;;;;;;5073813;28;20225;-81
2023/08/03 11:51:59;;;;;;;4.75;2.00;;;20.40;99.90;;;;;;5074590;28;20555;-80
2023/08/03 11:54:27;;;;;;;2.75;2.20;;;20.30;99.90;;;;;;5082087;28;20191;-81
2023/08/03 11:56:53;;;;;;;3.72;2.22;;;20.30;99.90;;;;;;5079414;28;20199;-79
2023/08/03 11:59:19;;;;;;;5.55;2.08;;;20.10;99.90;;;;;;5095183;28;20635;-79
2023/08/03 12:01:47;;;;;;;4.18;2.05;;;20.10;99.90;;;;;;5095598;28;20262;-78
2023/08/03 12:04:13;;;;;;;5.10;1.88;;;20.20;99.90;;;;;;5095733;28;20537;-79
2023/08/03 12:06:57;;;;;;;3.42;1.80;;;20.00;99.90;;;;;;5096007;28;20674;-79
2023/08/03 12:09:25;;;;;;;3.97;1.67;;;20.10;99.90;;;;;;5094823;28;20531;-77
2023/08/03 12:11:58;;;;;;;2.83;1.80;;;20.10;99.90;;;;;;5075661;28;20184;-79
2023/08/03 12:14:24;;;;;;;4.25;1.83;;;20.10;99.90;;;;;;5075394;28;20180;-78
2023/08/03 12:16:49;;;;;;;3.25;1.60;;;19.90;99.90;;;;;;5073703;28;20176;-80
2023/08/03 12:19:15;;;;;;;2.28;1.70;;;19.40;99.90;;;;;;5079360;28;20179;-78
2023/08/03 12:21:41;;;;;;;1.90;1.80;;;19.20;99.90;;;;;;5094976;28;20168;-79
2023/08/03 12:24:07;;;;;;;4.47;2.20;;;19.10;99.90;;;;;;5094508;28;20193;-78
2023/08/03 12:26:33;;;;;;;4.03;2.42;;;19.10;99.90;;;;;;5094546;28;20168;-79
2023/08/03 12:29:01;;;;;;;4.10;2.22;;;19.30;99.90;;;;;;5075557;28;20200;-77
2023/08/03 12:31:30;;;;;;;4.43;2.30;;;19.40;99.90;;;;;;5074328;28;20187;-79
2023/08/03 12:33:57;;;;;;;4.43;2.15;;;19.80;99.90;;;;;;5087448;28;20199;-79
2023/08/03 12:36:23;;;;;;;4.78;2.05;;;19.80;99.90;;;;;;5093658;28;20213;-79
2023/08/03 12:38:48;;;;;;;3.80;2.60;;;19.80;99.90;;;;;;5093300;28;20180;-79
2023/08/03 12:41:14;;;;;;;4.85;2.58;;;19.90;99.90;;;;;;5094567;28;20216;-78
2023/08/03 12:43:40;;;;;;;3.63;2.20;;;20.10;99.90;;;;;;5093988;28;20256;-80
2023/08/03 12:46:07;;;;;;;5.50;2.08;;;20.40;99.90;;;;;;5081834;28;20172;-82
2023/08/03 12:48:32;;;;;;;3.53;1.88;;;20.60;99.90;;;;;;5093207;28;20237;-80